Time;durP1;ratioP1;P1;durP2;ratioP2;P2;SDS_P1;SDS_P2;PMS_P1;PMS_P2;Temp;Humidity;BMP_temperature;BMP_pressure;BME280_temperature;BME280_humidity;BME280_pressure;Samples;Min_cycle;Max_cycle;Signal;HPM_P1;HPM_P2
2021/07/10 00:00:44;;;;;;;27.10;19.42;;;;;;;19.74;61.80;101850.22;5073054;28;20056;-53
2021/07/10 00:03:12;;;;;;;21.83;16.70;;;;;;;19.74;61.75;101851.03;5073160;28;20044;-50
2021/07/10 00:05:40;;;;;;;22.90;16.85;;;;;;;19.77;61.67;101836.59;5073091;28;20040;-52
2021/07/10 00:08:09;;;;;;;21.25;16.77;;;;;;;19.79;61.54;101844.56;5072812;28;20051;-51
2021/07/10 00:10:36;;;;;;;29.30;23.27;;;;;;;19.78;61.67;101846.53;5072799;28;20044;-52
2021/07/10 00:13:04;;;;;;;24.45;18.80;;;;;;;19.76;61.78;101839.66;5072830;28;20511;-52
2021/07/10 00:15:31;;;;;;;20.20;16.10;;;;;;;19.75;61.88;101838.84;5072825;28;20072;-52
2021/07/10 00:17:59;;;;;;;19.38;14.20;;;;;;;19.77;61.94;101835.75;5072796;28;20047;-52
2021/07/10 00:20:27;;;;;;;20.58;15.52;;;;;;;19.79;61.76;101839.88;5073057;28;20415;-53
2021/07/10 00:22:54;;;;;;;19.45;15.00;;;;;;;19.82;61.31;101838.44;5072522;28;20184;-55
2021/07/10 00:25:22;;;;;;;18.48;13.98;;;;;;;19.85;61.35;101837.03;5072099;28;20514;-53
2021/07/10 00:27:51;;;;;;;22.83;17.33;;;;;;;19.86;61.49;101835.88;5072685;28;20036;-53
2021/07/10 00:30:20;;;;;;;22.17;15.80;;;;;;;19.85;61.45;101837.84;5072450;28;20494;-54
2021/07/10 00:32:49;;;;;;;19.67;15.13;;;;;;;19.85;61.34;101826.78;5072846;28;20036;-55
2021/07/10 00:35:18;;;;;;;19.75;15.73;;;;;;;19.84;61.16;101827.88;5072344;28;20129;-56
2021/07/10 00:37:46;;;;;;;24.77;17.33;;;;;;;19.84;61.34;101819.59;5072523;28;20047;-56
2021/07/10 00:40:14;;;;;;;20.55;15.15;;;;;;;19.83;61.53;101812.44;5072276;28;20059;-51
2021/07/10 00:42:42;;;;;;;23.30;17.15;;;;;;;19.81;61.55;101820.19;5072452;28;20048;-53
2021/07/10 00:45:11;;;;;;;19.90;16.13;;;;;;;19.78;61.68;101821.63;5054582;28;20055;-53
2021/07/10 00:47:39;;;;;;;25.92;18.40;;;;;;;19.76;61.71;101817.53;5072292;28;20051;-51
2021/07/10 00:50:11;;;;;;;20.98;15.35;;;;;;;19.72;61.82;101822.03;5072594;28;20062;-52
2021/07/10 00:52:39;;;;;;;16.90;12.80;;;;;;;19.72;62.13;101817.34;5072275;28;20041;-53
2021/07/10 00:55:08;;;;;;;18.50;13.73;;;;;;;19.73;62.24;101824.50;5052112;28;20044;-54
2021/07/10 00:57:36;;;;;;;21.02;16.17;;;;;;;19.72;62.26;101819.28;5051219;28;20041;-53
2021/07/10 01:00:07;;;;;;;19.40;14.05;;;;;;;19.70;62.27;101813.22;5051755;28;20060;-50
2021/07/10 01:02:35;;;;;;;22.95;16.70;;;;;;;19.69;62.49;101812.41;5072100;28;20075;-53
2021/07/10 01:05:07;;;;;;;22.73;18.40;;;;;;;19.68;62.55;101808.00;5051785;28;20069;-52
2021/07/10 01:07:35;;;;;;;24.73;18.58;;;;;;;19.67;62.78;101809.09;5072241;28;20053;-55
2021/07/10 01:10:04;;;;;;;25.70;18.25;;;;;;;19.65;62.72;101802.22;5051310;28;20115;-55
2021/07/10 01:12:32;;;;;;;19.63;15.10;;;;;;;19.63;63.13;101801.75;5072377;28;20438;-53
2021/07/10 01:15:00;;;;;;;22.48;17.20;;;;;;;19.61;63.15;101810.34;5071798;28;20028;-55
2021/07/10 01:17:27;;;;;;;21.58;16.45;;;;;;;19.59;63.33;101799.56;5071957;28;20049;-52
2021/07/10 01:20:06;;;;;;;22.33;17.30;;;;;;;19.54;63.44;101805.19;5072067;28;20467;-54
2021/07/10 01:22:34;;;;;;;22.90;16.17;;;;;;;19.51;63.52;101802.22;5071949;28;20048;-53
2021/07/10 01:25:03;;;;;;;23.20;16.85;;;;;;;19.48;63.74;101800.91;5071716;28;20165;-50
2021/07/10 01:27:31;;;;;;;20.33;16.02;;;;;;;19.45;64.04;101800.66;5072014;28;20063;-54
2021/07/10 01:30:00;;;;;;;23.48;17.35;;;;;;;19.42;64.21;101795.75;5070174;28;20043;-51
2021/07/10 01:32:28;;;;;;;21.77;16.80;;;;;;;19.39;64.41;101785.31;5071991;28;20032;-53
2021/07/10 01:34:56;;;;;;;23.00;16.90;;;;;;;19.38;64.43;101784.47;5072019;28;20098;-53
2021/07/10 01:37:24;;;;;;;23.67;16.88;;;;;;;19.34;64.54;101777.94;5071484;28;20048;-50
2021/07/10 01:39:51;;;;;;;23.30;16.77;;;;;;;19.29;64.83;101780.78;5051854;28;20561;-57
2021/07/10 01:42:19;;;;;;;21.15;15.98;;;;;;;19.23;65.17;101773.72;5075170;28;20058;-55
2021/07/10 01:44:48;;;;;;;23.25;17.85;;;;;;;19.19;65.36;101772.66;5075653;28;20052;-55
2021/07/10 01:47:16;;;;;;;21.05;16.00;;;;;;;19.14;65.42;101779.09;5075917;28;20053;-52
2021/07/10 01:49:44;;;;;;;24.30;17.50;;;;;;;19.12;65.60;101776.66;5075754;28;20380;-52
2021/07/10 01:52:12;;;;;;;22.27;17.13;;;;;;;19.10;65.90;101778.09;5075230;28;20051;-53
2021/07/10 01:54:39;;;;;;;24.80;17.20;;;;;;;19.07;66.04;101782.28;5075678;28;20036;-52
2021/07/10 01:57:11;;;;;;;23.75;17.13;;;;;;;19.04;66.00;101771.81;5075920;28;20044;-52
2021/07/10 01:59:39;;;;;;;19.55;16.60;;;;;;;19.03;66.21;101772.94;5075436;28;20036;-52
2021/07/10 02:02:07;;;;;;;24.50;17.52;;;;;;;19.02;66.32;101765.75;5075865;28;20062;-54
2021/07/10 02:04:44;;;;;;;24.13;17.80;;;;;;;19.01;66.46;101768.84;5075325;28;20071;-53
2021/07/10 02:07:14;;;;;;;23.50;17.80;;;;;;;18.96;66.49;101761.47;5075109;28;20040;-54
2021/07/10 02:09:42;;;;;;;24.63;17.65;;;;;;;18.90;66.64;101762.66;5075267;28;20798;-52
2021/07/10 02:12:11;;;;;;;31.80;19.05;;;;;;;18.86;66.83;101761.63;5075509;28;20040;-56
2021/07/10 02:14:39;;;;;;;29.98;20.30;;;;;;;18.83;67.14;101759.47;5074957;28;20477;-51
2021/07/10 02:17:06;;;;;;;28.23;18.35;;;;;;;18.82;67.08;101750.34;5075402;28;20037;-56
2021/07/10 02:19:34;;;;;;;26.10;18.35;;;;;;;18.83;66.99;101751.16;5075322;28;20052;-56
2021/07/10 02:22:06;;;;;;;29.38;19.88;;;;;;;18.84;67.06;101758.34;5074492;28;20523;-56
2021/07/10 02:24:35;;;;;;;31.60;21.30;;;;;;;18.81;67.09;101764.47;5075164;28;20135;-55
2021/07/10 02:27:03;;;;;;;35.42;21.58;;;;;;;18.76;67.37;101759.00;5054593;28;20041;-54
2021/07/10 02:29:31;;;;;;;28.75;21.58;;;;;;;18.73;67.46;101758.47;5075047;28;20045;-56
2021/07/10 02:31:58;;;;;;;30.63;21.42;;;;;;;18.71;67.47;101757.97;5053609;28;20064;-56
2021/07/10 02:34:26;;;;;;;28.85;21.65;;;;;;;18.69;67.63;101749.16;5075171;28;20131;-56
2021/07/10 02:36:53;;;;;;;31.00;21.92;;;;;;;18.65;67.76;101750.06;5074273;28;20044;-57
2021/07/10 02:39:21;;;;;;;31.23;21.13;;;;;;;18.64;67.71;101743.72;5074758;28;20033;-56
2021/07/10 02:41:48;;;;;;;34.88;21.98;;;;;;;18.63;67.80;101742.06;5053732;28;20044;-52
2021/07/10 02:44:17;;;;;;;33.08;23.33;;;;;;;18.62;67.95;101745.97;5055913;28;20052;-54
2021/07/10 02:46:44;;;;;;;33.90;23.88;;;;;;;18.63;67.91;101746.78;5074869;28;20048;-54
2021/07/10 02:49:12;;;;;;;33.17;23.48;;;;;;;18.61;67.96;101741.53;5074271;28;20525;-53
2021/07/10 02:51:39;;;;;;;31.60;22.25;;;;;;;18.58;68.02;101739.41;5074514;28;20560;-53
2021/07/10 02:54:07;;;;;;;34.22;24.38;;;;;;;18.57;68.12;101732.25;5054378;28;20045;-53
2021/07/10 02:56:35;;;;;;;34.17;24.42;;;;;;;18.54;68.26;101732.81;5074767;28;20044;-54
2021/07/10 02:59:02;;;;;;;34.45;23.77;;;;;;;18.52;68.26;101732.31;5074315;28;20522;-53
2021/07/10 03:01:30;;;;;;;32.28;23.55;;;;;;;18.50;68.48;101723.53;5074756;28;20056;-52
2021/07/10 03:03:57;;;;;;;32.88;23.17;;;;;;;18.49;68.51;101717.16;5074325;28;20040;-54
2021/07/10 03:06:25;;;;;;;30.90;23.05;;;;;;;18.45;68.61;101718.09;5073837;28;20041;-53
2021/07/10 03:08:52;;;;;;;35.38;24.02;;;;;;;18.41;68.72;101717.84;5074572;28;20415;-53
2021/07/10 03:11:20;;;;;;;32.15;23.63;;;;;;;18.40;68.81;101710.69;5055967;28;20050;-53
2021/07/10 03:13:48;;;;;;;34.97;24.25;;;;;;;18.39;68.82;101711.00;5074316;28;20061;-51
2021/07/10 03:16:16;;;;;;;34.70;24.27;;;;;;;18.36;68.93;101708.84;5073883;28;20040;-55
2021/07/10 03:18:43;;;;;;;33.08;25.13;;;;;;;18.30;69.21;101708.91;5074264;28;20051;-54
2021/07/10 03:21:11;;;;;;;33.47;24.45;;;;;;;18.26;69.36;101705.09;5073779;28;20047;-52
2021/07/10 03:23:38;;;;;;;34.88;24.20;;;;;;;18.27;69.17;101703.16;5052984;28;20041;-57
2021/07/10 03:26:06;;;;;;;31.17;22.92;;;;;;;18.28;69.38;101697.34;5071876;28;20119;-53
2021/07/10 03:28:33;;;;;;;31.20;23.27;;;;;;;18.30;69.34;101697.88;5074046;28;20135;-54
2021/07/10 03:31:01;;;;;;;33.95;23.60;;;;;;;18.31;69.31;101688.47;5074189;28;20127;-56
2021/07/10 03:33:34;;;;;;;31.98;24.25;;;;;;;18.34;68.75;101689.81;5052289;28;20132;-53
2021/07/10 03:36:05;;;;;;;33.97;24.90;;;;;;;18.36;68.93;101697.81;5070677;28;20106;-57
2021/07/10 03:38:33;;;;;;;36.25;25.05;;;;;;;18.31;68.93;101690.41;5073970;28;20521;-55
2021/07/10 03:41:03;;;;;;;42.15;25.02;;;;;;;18.26;69.25;101696.81;5074089;28;20086;-52
2021/07/10 03:43:31;;;;;;;37.78;26.60;;;;;;;18.22;69.34;101698.53;5073703;28;20528;-49
2021/07/10 03:46:02;;;;;;;38.00;25.38;;;;;;;18.20;69.55;101702.72;5073431;28;20052;-52
2021/07/10 03:48:30;;;;;;;36.30;24.75;;;;;;;18.19;69.63;101704.66;5073407;28;20107;-54
2021/07/10 03:50:59;;;;;;;38.92;26.88;;;;;;;18.20;69.56;101699.94;5073570;28;20036;-52
2021/07/10 03:53:27;;;;;;;40.28;28.65;;;;;;;18.15;70.11;101697.28;5065743;28;20503;-55
2021/07/10 03:55:54;;;;;;;37.78;27.00;;;;;;;18.12;70.26;101701.44;5073289;28;20035;-51
2021/07/10 03:58:22;;;;;;;36.75;25.73;;;;;;;18.11;70.25;101699.78;5055512;28;20037;-54
2021/07/10 04:00:49;;;;;;;45.47;27.90;;;;;;;18.06;70.40;101697.09;5072908;28;20045;-54
2021/07/10 04:03:17;;;;;;;39.75;27.13;;;;;;;18.05;70.41;101698.25;5072335;28;20498;-53
2021/07/10 04:05:44;;;;;;;42.63;29.77;;;;;;;18.05;70.47;101701.00;5073287;28;20036;-52
2021/07/10 04:08:12;;;;;;;39.92;26.95;;;;;;;18.06;70.54;101694.34;5073347;28;20032;-53
2021/07/10 04:10:39;;;;;;;42.40;27.63;;;;;;;18.08;70.54;101697.63;5072903;28;20433;-52
2021/07/10 04:13:11;;;;;;;36.97;27.25;;;;;;;18.11;70.41;101697.03;5072945;28;20037;-55
2021/07/10 04:15:39;;;;;;;36.95;27.27;;;;;;;18.11;70.15;101691.50;5072833;28;20040;-53
2021/07/10 04:18:07;;;;;;;44.85;29.13;;;;;;;18.10;70.58;101689.88;5072472;28;20032;-53
2021/07/10 04:20:34;;;;;;;42.28;28.52;;;;;;;18.09;70.67;101694.59;5073064;28;20525;-56
2021/07/10 04:23:02;;;;;;;40.20;27.85;;;;;;;18.09;70.65;101696.53;5072821;28;20048;-55
2021/07/10 04:25:29;;;;;;;42.30;30.17;;;;;;;18.11;70.58;101697.03;5072530;28;20045;-53
2021/07/10 04:27:57;;;;;;;42.83;29.80;;;;;;;18.15;70.58;101691.75;5072723;28;20048;-53
2021/07/10 04:30:24;;;;;;;38.92;26.65;;;;;;;18.20;70.41;101700.75;5072503;28;20051;-53
2021/07/10 04:32:52;;;;;;;41.15;27.15;;;;;;;18.25;70.20;101692.41;5072258;28;20044;-53
2021/07/10 04:35:21;;;;;;;36.55;27.10;;;;;;;18.29;70.17;101693.47;5072734;28;20132;-53
2021/07/10 04:37:48;;;;;;;39.35;27.38;;;;;;;18.34;69.84;101694.50;5072349;28;20037;-52
2021/07/10 04:40:16;;;;;;;37.47;28.48;;;;;;;18.36;69.76;101689.53;5072131;28;20032;-51
2021/07/10 04:42:44;;;;;;;38.90;29.08;;;;;;;18.33;69.97;101690.94;5072695;28;20373;-54
2021/07/10 04:45:12;;;;;;;40.50;27.77;;;;;;;18.30;70.39;101692.38;5072062;28;20048;-54
2021/07/10 04:47:41;;;;;;;41.67;29.42;;;;;;;18.30;70.40;101694.28;5050890;28;20045;-55
2021/07/10 04:50:10;;;;;;;40.85;29.25;;;;;;;18.26;70.54;101696.81;5070202;28;20407;-54
2021/07/10 04:52:37;;;;;;;42.90;29.58;;;;;;;18.25;70.57;101692.41;5072214;28;20055;-54
2021/07/10 04:55:06;;;;;;;44.53;30.70;;;;;;;18.26;70.65;101688.56;5052343;28;20059;-51
2021/07/10 04:57:33;;;;;;;44.05;30.23;;;;;;;18.30;70.56;101699.78;5072209;28;20376;-55
2021/07/10 05:00:02;;;;;;;43.58;29.73;;;;;;;18.33;70.41;101695.63;5071979;28;20617;-52
2021/07/10 05:02:29;;;;;;;44.95;30.33;;;;;;;18.37;70.37;101696.66;5071974;28;20036;-53
2021/07/10 05:04:57;;;;;;;44.97;31.52;;;;;;;18.38;70.29;101693.63;5071885;28;20491;-53
2021/07/10 05:07:25;;;;;;;47.75;32.95;;;;;;;18.38;70.24;101696.38;5071863;28;20055;-53
2021/07/10 05:09:52;;;;;;;45.90;31.73;;;;;;;18.37;70.29;101691.16;5071935;28;20036;-51
2021/07/10 05:12:22;;;;;;;40.58;29.90;;;;;;;18.34;70.54;101700.03;5071766;28;20037;-50
2021/07/10 05:14:51;;;;;;;44.85;31.45;;;;;;;18.35;70.38;101685.94;5070644;28;20041;-54
2021/07/10 05:17:19;;;;;;;47.60;30.80;;;;;;;18.36;70.20;101695.03;5071968;28;20094;-51
2021/07/10 05:19:47;;;;;;;48.30;31.35;;;;;;;18.36;70.27;101687.56;5071954;28;20052;-51
2021/07/10 05:22:15;;;;;;;43.70;32.55;;;;;;;18.39;70.45;101691.69;5072120;28;20066;-52
2021/07/10 05:24:43;;;;;;;47.53;32.75;;;;;;;18.40;70.20;101687.78;5071490;28;20437;-54
2021/07/10 05:27:11;;;;;;;46.50;32.53;;;;;;;18.39;70.36;101691.69;5072029;28;20028;-52
2021/07/10 05:29:38;;;;;;;41.00;29.63;;;;;;;18.39;70.31;101691.69;5071462;28;20056;-49
2021/07/10 05:32:06;;;;;;;46.50;32.03;;;;;;;18.40;70.42;101690.53;5050264;28;20044;-51
2021/07/10 05:34:34;;;;;;;46.40;31.15;;;;;;;18.41;70.21;101689.44;5071903;28;20603;-52
2021/07/10 05:37:02;;;;;;;49.17;31.88;;;;;;;18.41;70.51;101684.72;5071660;28;20039;-50
2021/07/10 05:39:29;;;;;;;41.38;29.70;;;;;;;18.43;70.50;101693.53;5072006;28;20040;-51
2021/07/10 05:41:57;;;;;;;42.42;28.30;;;;;;;18.43;70.55;101688.03;5071816;28;20048;-53
2021/07/10 05:44:25;;;;;;;41.47;29.13;;;;;;;18.46;70.73;101692.13;5071336;28;20055;-51
2021/07/10 05:46:52;;;;;;;45.88;30.70;;;;;;;18.43;70.82;101693.53;5072076;28;20055;-52
2021/07/10 05:49:21;;;;;;;42.53;29.92;;;;;;;18.40;70.43;101693.31;5071799;28;20102;-51
2021/07/10 05:51:49;;;;;;;44.22;29.85;;;;;;;18.37;70.70;101702.19;5071620;28;20041;-52
2021/07/10 05:54:16;;;;;;;44.72;29.25;;;;;;;18.36;70.89;101698.63;5071783;28;20044;-51
2021/07/10 05:56:45;;;;;;;30.00;20.73;;;;;;;18.41;70.79;101694.97;5071752;28;20505;-52
2021/07/10 05:59:12;;;;;;;46.28;27.48;;;;;;;18.43;70.71;101692.72;5052131;28;20041;-52
2021/07/10 06:01:40;;;;;;;39.40;27.10;;;;;;;18.44;70.68;101695.16;5071379;28;20076;-55
2021/07/10 06:04:07;;;;;;;39.08;27.70;;;;;;;18.47;70.67;101696.50;5071562;28;20083;-51
2021/07/10 06:06:35;;;;;;;37.55;26.90;;;;;;;18.50;70.64;101693.16;5071679;28;20055;-51
2021/07/10 06:09:03;;;;;;;36.42;26.02;;;;;;;18.51;70.58;101689.28;5071828;28;20040;-51
2021/07/10 06:11:33;;;;;;;39.95;27.08;;;;;;;18.51;70.61;101700.31;5071742;28;20070;-50
2021/07/10 06:14:03;;;;;;;40.47;26.42;;;;;;;18.48;70.55;101693.44;5071129;28;20166;-52
2021/07/10 06:16:31;;;;;;;39.13;27.70;;;;;;;18.47;70.56;101693.75;5071553;28;20048;-54
2021/07/10 06:18:59;;;;;;;38.97;27.08;;;;;;;18.47;70.75;101693.75;5071529;28;20048;-51
2021/07/10 06:21:26;;;;;;;41.33;26.80;;;;;;;18.47;70.79;101688.22;5071138;28;20039;-51
2021/07/10 06:23:56;;;;;;;40.50;26.83;;;;;;;18.48;70.99;101695.41;5050074;28;20052;-53
2021/07/10 06:26:23;;;;;;;29.58;21.23;;;;;;;18.50;71.09;101693.16;5065559;28;20055;-55
2021/07/10 06:28:51;;;;;;;33.85;22.95;;;;;;;18.55;70.87;101690.31;5074661;28;20055;-55
2021/07/10 06:31:19;;;;;;;31.10;19.80;;;;;;;18.61;70.30;101691.84;5074942;28;20106;-56
2021/07/10 06:33:47;;;;;;;33.60;22.50;;;;;;;18.63;70.34;101686.88;5053845;28;20048;-51
2021/07/10 06:36:15;;;;;;;27.50;19.05;;;;;;;18.65;70.26;101684.63;5073839;28;20052;-53
2021/07/10 06:38:43;;;;;;;37.00;23.80;;;;;;;18.68;70.19;101684.00;5074397;28;20149;-55
2021/07/10 06:41:10;;;;;;;33.30;21.38;;;;;;;18.70;70.29;101684.53;5074584;28;20518;-50
2021/07/10 06:43:38;;;;;;;35.45;25.20;;;;;;;18.72;70.31;101682.28;5074468;28;20045;-52
2021/07/10 06:46:07;;;;;;;42.03;25.40;;;;;;;18.73;70.07;101675.63;5074426;28;20044;-50
2021/07/10 06:48:36;;;;;;;34.88;23.98;;;;;;;18.74;69.56;101677.28;5053703;28;20056;-52
2021/07/10 06:51:04;;;;;;;29.23;20.42;;;;;;;18.73;68.11;101670.13;5065465;28;20052;-49
2021/07/10 06:53:31;;;;;;;33.17;22.27;;;;;;;18.70;68.09;101681.78;5074199;28;20053;-53
2021/07/10 06:55:59;;;;;;;32.42;22.63;;;;;;;18.71;68.52;101682.59;5073905;28;20049;-52
2021/07/10 06:58:27;;;;;;;32.35;22.27;;;;;;;18.72;68.21;101679.53;5074428;28;20136;-52
2021/07/10 07:00:54;;;;;;;31.40;21.40;;;;;;;18.73;67.95;101683.91;5074388;28;20384;-53
2021/07/10 07:03:22;;;;;;;35.90;24.08;;;;;;;18.74;68.18;101679.25;5074430;28;20396;-53
2021/07/10 07:05:49;;;;;;;39.60;23.80;;;;;;;18.76;68.10;101681.69;5073674;28;20131;-53
2021/07/10 07:08:17;;;;;;;31.85;23.10;;;;;;;18.77;68.50;101680.59;5074097;28;20044;-52
2021/07/10 07:10:44;;;;;;;32.97;21.80;;;;;;;18.79;67.72;101681.13;5073958;28;20037;-51
2021/07/10 07:13:12;;;;;;;32.58;20.88;;;;;;;18.80;67.50;101683.56;5073910;28;20040;-52
2021/07/10 07:15:40;;;;;;;33.45;22.33;;;;;;;18.83;67.61;101690.44;5074126;28;20052;-50
2021/07/10 07:18:07;;;;;;;29.90;19.10;;;;;;;18.84;66.51;101686.56;5073786;28;20491;-53
2021/07/10 07:20:35;;;;;;;32.60;21.20;;;;;;;18.83;66.52;101688.50;5073635;28;20383;-52
2021/07/10 07:23:03;;;;;;;32.33;22.70;;;;;;;18.86;67.03;101689.84;5073449;28;20102;-53
2021/07/10 07:25:30;;;;;;;24.73;17.70;;;;;;;18.86;64.31;101681.56;5073226;28;20047;-51
2021/07/10 07:27:58;;;;;;;28.27;17.77;;;;;;;18.87;63.57;101681.25;5073494;28;20046;-53
2021/07/10 07:30:26;;;;;;;26.95;17.55;;;;;;;18.88;64.09;101679.28;5066044;28;20052;-57
2021/07/10 07:32:53;;;;;;;25.27;17.00;;;;;;;18.95;63.90;101685.25;5074011;28;20482;-54
2021/07/10 07:35:21;;;;;;;27.30;17.25;;;;;;;18.99;62.93;101675.22;5059477;28;20055;-56
2021/07/10 07:37:49;;;;;;;22.80;14.50;;;;;;;19.01;61.86;101670.22;5072781;28;20037;-53
2021/07/10 07:40:17;;;;;;;25.05;16.77;;;;;;;19.03;61.91;101672.69;5073144;28;20045;-55
2021/07/10 07:42:46;;;;;;;25.27;16.17;;;;;;;19.05;61.40;101670.41;5073573;28;20036;-56
2021/07/10 07:45:15;;;;;;;21.73;14.30;;;;;;;19.07;61.42;101668.19;5072957;28;20041;-56
2021/07/10 07:47:42;;;;;;;23.58;14.60;;;;;;;19.10;61.04;101673.94;5073219;28;20037;-52
2021/07/10 07:50:11;;;;;;;21.08;13.60;;;;;;;19.12;60.22;101674.44;5072807;28;20491;-54
2021/07/10 07:52:39;;;;;;;17.50;11.25;;;;;;;19.15;60.18;101670.25;5068390;28;20029;-55
2021/07/10 07:55:08;;;;;;;17.60;10.55;;;;;;;19.22;61.76;101667.91;5072562;28;20052;-55
2021/07/10 07:57:37;;;;;;;23.33;12.38;;;;;;;19.31;61.53;101668.84;5073275;28;20041;-52
2021/07/10 08:00:11;;;;;;;19.63;10.88;;;;;;;19.36;61.74;101660.44;5072966;28;20106;-53
2021/07/10 08:02:38;;;;;;;19.17;12.57;;;;;;;19.36;60.18;101663.22;5072995;28;20056;-54
2021/07/10 08:05:06;;;;;;;18.67;10.75;;;;;;;19.40;61.02;101655.09;5072631;28;20135;-53
2021/07/10 08:07:34;;;;;;;19.13;13.35;;;;;;;19.41;60.15;101656.75;5072838;28;20040;-55
2021/07/10 08:10:11;;;;;;;16.95;9.65;;;;;;;19.42;59.52;101661.16;5052246;28;20075;-55
2021/07/10 08:12:40;;;;;;;13.60;8.30;;;;;;;19.44;59.96;101650.59;5072880;28;20131;-53
2021/07/10 08:15:09;;;;;;;14.38;8.65;;;;;;;19.48;59.53;101651.63;5072191;28;20049;-56
2021/07/10 08:17:42;;;;;;;15.52;10.20;;;;;;;19.49;58.97;101642.22;5051712;28;20132;-56
2021/07/10 08:20:12;;;;;;;16.60;10.52;;;;;;;19.47;58.70;101647.22;5069925;28;20036;-54
2021/07/10 08:22:39;;;;;;;15.98;10.23;;;;;;;19.46;58.53;101653.88;5072006;28;20067;-56
2021/07/10 08:25:08;;;;;;;14.25;8.30;;;;;;;19.45;57.98;101655.00;5072098;28;20032;-56
2021/07/10 08:27:35;;;;;;;19.33;10.68;;;;;;;19.48;58.63;101645.25;5072736;28;20510;-56
2021/07/10 08:30:05;;;;;;;18.52;11.90;;;;;;;19.51;58.82;101645.47;5072262;28;20045;-55
2021/07/10 08:32:33;;;;;;;15.65;8.48;;;;;;;19.55;59.10;101635.47;5072315;28;20048;-55
2021/07/10 08:35:03;;;;;;;14.73;10.05;;;;;;;19.64;58.54;101634.72;5072439;28;20068;-53
2021/07/10 08:37:31;;;;;;;16.83;10.15;;;;;;;19.62;58.21;101634.19;5071305;28;20059;-55
2021/07/10 08:39:58;;;;;;;20.23;11.20;;;;;;;19.59;58.04;101643.94;5051240;28;20048;-55
2021/07/10 08:42:26;;;;;;;16.73;11.15;;;;;;;19.56;58.11;101645.38;5072414;28;20040;-52
2021/07/10 08:44:54;;;;;;;19.88;11.25;;;;;;;19.55;58.38;101640.97;5072093;28;20105;-54
2021/07/10 08:47:22;;;;;;;16.50;10.90;;;;;;;19.57;58.83;101637.88;5072125;28;20037;-54
2021/07/10 08:49:49;;;;;;;17.67;10.98;;;;;;;19.62;59.15;101634.19;5072092;28;20047;-51
2021/07/10 08:52:17;;;;;;;15.00;8.10;;;;;;;19.73;60.11;101639.22;5067461;28;20399;-51
2021/07/10 08:54:44;;;;;;;13.50;7.82;;;;;;;19.81;59.25;101643.22;5050494;28;20048;-54
2021/07/10 08:57:13;;;;;;;13.57;8.20;;;;;;;19.85;58.33;101644.22;5070501;28;20059;-55
2021/07/10 08:59:41;;;;;;;16.08;8.50;;;;;;;19.89;58.58;101638.88;5040380;28;20052;-54
2021/07/10 09:02:09;;;;;;;11.70;7.40;;;;;;;19.94;58.83;101631.31;5072169;28;20040;-53
2021/07/10 09:04:36;;;;;;;12.98;8.68;;;;;;;19.98;58.44;101637.00;5071627;28;20036;-54
2021/07/10 09:07:04;;;;;;;14.88;9.27;;;;;;;19.99;57.88;101633.94;5070985;28;20036;-53
2021/07/10 09:09:45;;;;;;;17.60;10.77;;;;;;;20.00;57.37;101623.69;5071073;28;20540;-56
2021/07/10 09:12:14;;;;;;;11.05;6.75;;;;;;;20.05;57.99;101625.53;5053778;28;20048;-57
2021/07/10 09:14:42;;;;;;;12.93;6.60;;;;;;;20.07;57.49;101624.09;5053478;28;20498;-50
2021/07/10 09:17:21;;;;;;;19.63;9.70;;;;;;;20.07;56.40;101620.50;5071859;28;20407;-55
2021/07/10 09:19:49;;;;;;;17.13;10.18;;;;;;;20.07;55.88;101628.81;5071154;28;20044;-55
2021/07/10 09:22:31;;;;;;;15.32;9.27;;;;;;;20.05;56.91;101620.81;5071403;28;20052;-56
2021/07/10 09:24:59;;;;;;;10.73;6.25;;;;;;;20.08;57.56;101620.16;5070886;28;20086;-56
2021/07/10 09:27:27;;;;;;;13.43;8.00;;;;;;;20.14;57.49;101618.94;5072008;28;20147;-56
2021/07/10 09:29:56;;;;;;;12.68;8.32;;;;;;;20.18;56.86;101622.72;5053232;28;20032;-56
2021/07/10 09:32:25;;;;;;;10.82;6.22;;;;;;;20.25;57.29;101611.19;5071748;28;20418;-55
2021/07/10 09:34:55;;;;;;;17.70;9.85;;;;;;;20.28;56.35;101618.06;5070986;28;20485;-56
2021/07/10 09:37:25;;;;;;;11.73;6.68;;;;;;;20.31;56.48;101611.91;5053343;28;20044;-55
2021/07/10 09:40:12;;;;;;;13.65;9.43;;;;;;;20.30;55.58;101610.25;5071687;28;20040;-54
2021/07/10 09:42:43;;;;;;;15.30;10.73;;;;;;;20.26;55.03;101598.19;5058267;28;20116;-52
2021/07/10 09:45:23;;;;;;;21.33;11.98;;;;;;;20.21;56.18;101602.72;5071079;28;20403;-53
2021/07/10 09:47:52;;;;;;;12.07;7.47;;;;;;;20.25;56.16;101610.38;5071314;28;20102;-52
2021/07/10 09:50:23;;;;;;;14.57;9.68;;;;;;;20.29;56.27;101614.16;5052842;28;20094;-55
2021/07/10 09:52:50;;;;;;;12.65;7.68;;;;;;;20.33;56.17;101604.91;5071118;28;20404;-53
2021/07/10 09:55:19;;;;;;;15.40;10.05;;;;;;;20.40;56.35;101604.47;5071308;28;20044;-53
2021/07/10 09:57:47;;;;;;;15.75;9.23;;;;;;;20.46;56.14;101596.84;5071388;28;20040;-53
2021/07/10 10:00:20;;;;;;;16.02;9.82;;;;;;;20.53;55.96;101597.22;5071591;28;20045;-52
2021/07/10 10:02:51;;;;;;;11.85;6.82;;;;;;;20.62;55.96;101598.13;5075223;28;20048;-50
2021/07/10 10:05:30;;;;;;;22.60;10.13;;;;;;;20.70;55.35;101600.13;5074625;28;20055;-52
2021/07/10 10:08:03;;;;;;;11.75;7.60;;;;;;;20.73;54.80;101593.13;5075330;28;20449;-54
2021/07/10 10:10:33;;;;;;;15.60;9.40;;;;;;;20.75;54.84;101588.91;5075361;28;20041;-52
2021/07/10 10:13:09;;;;;;;14.65;9.93;;;;;;;20.77;54.94;101591.34;5074926;28;20139;-54
2021/07/10 10:15:40;;;;;;;17.35;9.93;;;;;;;20.78;55.37;101588.28;5074825;28;20044;-50
2021/07/10 10:18:09;;;;;;;15.02;7.50;;;;;;;20.84;55.18;101584.22;5075199;28;20506;-53
2021/07/10 10:20:39;;;;;;;16.02;9.73;;;;;;;20.88;55.03;101575.25;5069704;28;20821;-53
2021/07/10 10:23:08;;;;;;;21.23;9.63;;;;;;;20.92;55.30;101577.06;5090664;28;20131;-52
2021/07/10 10:25:37;;;;;;;15.68;10.07;;;;;;;20.92;55.03;101570.72;5081035;28;20495;-53
2021/07/10 10:28:14;;;;;;;16.25;10.50;;;;;;;20.90;54.49;101568.28;5074928;28;20048;-52
2021/07/10 10:30:41;;;;;;;15.02;10.90;;;;;;;20.86;55.13;101567.28;5074678;28;20051;-53
2021/07/10 10:33:11;;;;;;;16.13;10.23;;;;;;;20.82;54.70;101569.88;5087332;28;20044;-52
2021/07/10 10:35:38;;;;;;;17.83;10.73;;;;;;;20.77;54.05;101567.25;5074604;28;20036;-54
2021/07/10 10:38:06;;;;;;;14.63;8.13;;;;;;;20.74;53.99;101564.31;5072020;28;20036;-52
2021/07/10 10:40:34;;;;;;;19.90;9.30;;;;;;;20.75;54.71;101566.72;5059038;28;20036;-50
2021/07/10 10:43:03;;;;;;;22.92;9.70;;;;;;;20.79;55.62;101567.75;5084049;28;20131;-51
2021/07/10 10:45:35;;;;;;;16.08;8.60;;;;;;;20.81;54.50;101564.66;5082187;28;20036;-54
2021/07/10 10:48:04;;;;;;;18.67;8.65;;;;;;;20.86;54.79;101570.06;5063642;28;20044;-49
2021/07/10 10:50:37;;;;;;;20.35;9.48;;;;;;;20.91;54.65;101558.03;5075428;28;20525;-53
2021/07/10 10:53:18;;;;;;;18.20;9.23;;;;;;;20.94;53.10;101547.09;5077232;28;20043;-51
2021/07/10 10:55:46;;;;;;;14.18;9.07;;;;;;;20.97;51.70;101545.63;5058875;28;20057;-52
2021/07/10 10:58:26;;;;;;;25.95;9.60;;;;;;;21.00;53.55;101542.25;5076912;28;20055;-50
2021/07/10 11:01:02;;;;;;;15.48;9.98;;;;;;;21.08;53.60;101538.66;5083669;28;20052;-54
2021/07/10 11:03:42;;;;;;;16.67;9.57;;;;;;;21.16;53.15;101537.06;5076015;28;20040;-52
2021/07/10 11:06:42;;;;;;;18.80;8.45;;;;;;;21.25;53.04;101529.59;5074376;28;20052;-52
2021/07/10 11:09:09;;;;;;;16.08;8.68;;;;;;;21.32;52.07;101529.91;5000059;28;20050;-52
2021/07/10 11:11:38;;;;;;;13.52;8.35;;;;;;;21.33;51.68;101525.19;4994477;28;20054;-53
2021/07/10 11:14:08;;;;;;;16.13;8.73;;;;;;;21.36;51.76;101521.75;4997030;28;20083;-53
2021/07/10 11:16:56;;;;;;;18.95;8.20;;;;;;;21.44;53.76;101526.53;4991912;28;20050;-50
2021/07/10 11:19:48;;;;;;;13.52;7.70;;;;;;;21.51;53.51;101524.09;4991092;28;20071;-51